Time;durP1;ratioP1;P1;durP2;ratioP2;P2;SDS_P1;SDS_P2;PMS_P1;PMS_P2;Temp;Humidity;BMP_temperature;BMP_pressure;BME280_temperature;BME280_humidity;BME280_pressure;Samples;Min_cycle;Max_cycle;Signal;HPM_P1;HPM_P2
2022/08/25 00:01:22;;;;;;;3.60;3.30;;;19.40;72.10;;;;;;4952284;28;20349;-61
2022/08/25 00:03:47;;;;;;;3.47;3.13;;;19.40;72.60;;;;;;4948774;28;20046;-60
2022/08/25 00:06:14;;;;;;;3.28;3.00;;;19.30;72.40;;;;;;4950643;28;20039;-60
2022/08/25 00:08:41;;;;;;;3.63;3.28;;;19.30;73.30;;;;;;4955792;28;20499;-61
2022/08/25 00:11:18;;;;;;;4.63;3.83;;;19.30;72.50;;;;;;4948511;28;20285;-62
2022/08/25 00:13:49;;;;;;;4.10;3.55;;;19.30;73.70;;;;;;4953316;28;20043;-62
2022/08/25 00:16:17;;;;;;;4.28;3.88;;;19.30;73.30;;;;;;4949949;28;20038;-62
2022/08/25 00:18:45;;;;;;;4.07;3.67;;;19.30;73.20;;;;;;4953889;28;20887;-61
2022/08/25 00:21:12;;;;;;;4.63;3.78;;;19.30;73.20;;;;;;4953994;28;20582;-62
2022/08/25 00:23:38;;;;;;;4.07;3.78;;;19.30;73.10;;;;;;4955786;28;20494;-61
2022/08/25 00:26:04;;;;;;;4.03;3.72;;;19.30;73.00;;;;;;4953908;28;20042;-62
2022/08/25 00:28:30;;;;;;;3.92;3.53;;;19.20;73.00;;;;;;4954857;28;20132;-62
2022/08/25 00:30:57;;;;;;;3.90;3.53;;;19.20;72.90;;;;;;4953309;28;20545;-61
2022/08/25 00:33:25;;;;;;;3.92;3.60;;;19.20;73.00;;;;;;4953397;28;20046;-61
2022/08/25 00:35:51;;;;;;;5.82;3.42;;;19.20;73.10;;;;;;4953575;28;20070;-60
2022/08/25 00:38:17;;;;;;;5.05;3.67;;;19.10;73.20;;;;;;4950621;28;20035;-62
2022/08/25 00:40:43;;;;;;;4.07;3.75;;;19.10;73.30;;;;;;4948659;28;20459;-62
2022/08/25 00:43:10;;;;;;;4.00;3.70;;;19.10;73.40;;;;;;4947003;28;20071;-61
2022/08/25 00:45:36;;;;;;;4.18;3.80;;;19.00;73.40;;;;;;4947738;28;21236;-61
2022/08/25 00:48:02;;;;;;;4.45;3.53;;;19.00;73.50;;;;;;4946759;28;20027;-61
2022/08/25 00:50:30;;;;;;;4.53;3.97;;;19.00;73.70;;;;;;4950393;28;20059;-61
2022/08/25 00:53:00;;;;;;;4.43;3.58;;;18.90;74.00;;;;;;4950012;28;20036;-62
2022/08/25 00:55:31;;;;;;;4.85;3.65;;;18.90;74.00;;;;;;4950589;28;20112;-62
2022/08/25 00:58:10;;;;;;;3.60;3.33;;;18.80;74.00;;;;;;4952033;28;20452;-61
2022/08/25 01:00:39;;;;;;;3.42;3.22;;;18.80;74.10;;;;;;4947289;28;20447;-62
2022/08/25 01:03:06;;;;;;;4.30;3.28;;;18.80;74.00;;;;;;4945123;28;20035;-62
2022/08/25 01:05:32;;;;;;;4.60;3.53;;;18.70;73.90;;;;;;4950257;28;20038;-62
2022/08/25 01:08:01;;;;;;;5.05;3.33;;;18.70;74.00;;;;;;4954524;28;20050;-62
2022/08/25 01:10:29;;;;;;;3.92;3.22;;;18.70;74.20;;;;;;4949064;28;20078;-61
2022/08/25 01:13:01;;;;;;;4.68;3.47;;;18.60;74.00;;;;;;4949428;28;20086;-60
2022/08/25 01:15:27;;;;;;;3.80;3.35;;;18.70;74.20;;;;;;4954965;28;20028;-62
2022/08/25 01:17:55;;;;;;;4.03;3.58;;;18.60;74.00;;;;;;4951361;28;20618;-61
2022/08/25 01:20:24;;;;;;;3.92;3.63;;;18.60;74.00;;;;;;4950395;28;20048;-61
2022/08/25 01:22:51;;;;;;;3.80;3.30;;;18.60;74.20;;;;;;4951439;28;20380;-62
2022/08/25 01:25:22;;;;;;;3.90;3.55;;;18.60;74.20;;;;;;4951158;28;20126;-62
2022/08/25 01:27:48;;;;;;;7.30;3.83;;;18.60;74.40;;;;;;4954249;28;20043;-60
2022/08/25 01:30:14;;;;;;;4.28;3.90;;;18.60;74.20;;;;;;4954960;28;20040;-60
2022/08/25 01:32:40;;;;;;;3.97;3.65;;;18.50;74.30;;;;;;4954429;28;20220;-61
2022/08/25 01:35:05;;;;;;;6.57;4.45;;;18.50;74.40;;;;;;4951283;28;20115;-62
2022/08/25 01:37:33;;;;;;;7.88;4.18;;;18.50;74.50;;;;;;4954011;28;20031;-61
2022/08/25 01:39:59;;;;;;;3.80;3.50;;;18.50;74.70;;;;;;4952454;28;20035;-61
2022/08/25 01:42:27;;;;;;;4.25;3.95;;;18.40;74.60;;;;;;4954562;28;20080;-62
2022/08/25 01:44:53;;;;;;;5.07;4.00;;;18.40;74.90;;;;;;4954700;28;20053;-60
2022/08/25 01:47:19;;;;;;;7.10;3.97;;;18.30;74.70;;;;;;4953251;28;20035;-62
2022/08/25 01:49:45;;;;;;;6.93;5.25;;;18.30;74.80;;;;;;4948536;28;20503;-61
2022/08/25 01:52:10;;;;;;;6.90;5.10;;;18.30;75.10;;;;;;4953463;28;20654;-61
2022/08/25 01:54:37;;;;;;;7.22;5.05;;;18.20;75.30;;;;;;4951549;28;20121;-60
2022/08/25 01:57:02;;;;;;;5.65;4.68;;;18.20;75.30;;;;;;4952240;28;20094;-62
2022/08/25 01:59:28;;;;;;;5.97;4.70;;;18.20;75.30;;;;;;4953830;28;20463;-61
2022/08/25 02:01:54;;;;;;;4.88;4.35;;;18.20;75.40;;;;;;4949180;28;20027;-62
2022/08/25 02:04:20;;;;;;;4.97;4.28;;;18.20;75.40;;;;;;4952809;28;20534;-62
2022/08/25 02:06:46;;;;;;;5.00;4.20;;;18.20;75.30;;;;;;4950535;28;20499;-61
2022/08/25 02:09:14;;;;;;;4.38;4.00;;;18.20;75.40;;;;;;4953189;28;20047;-61
2022/08/25 02:11:42;;;;;;;4.22;3.90;;;18.10;75.40;;;;;;4946874;28;20078;-61
2022/08/25 02:14:10;;;;;;;7.05;4.15;;;18.20;75.40;;;;;;4950465;28;20122;-61
2022/08/25 02:16:37;;;;;;;4.55;4.15;;;18.10;75.60;;;;;;4951001;28;20046;-61
2022/08/25 02:19:06;;;;;;;4.10;3.70;;;18.10;75.60;;;;;;4951917;28;20114;-61
2022/08/25 02:21:33;;;;;;;5.00;4.50;;;18.10;75.70;;;;;;4953580;28;20435;-62
2022/08/25 02:23:59;;;;;;;4.80;4.40;;;18.10;75.50;;;;;;4953426;28;20121;-61
2022/08/25 02:26:24;;;;;;;4.43;4.05;;;18.20;75.50;;;;;;4948884;28;20070;-61
2022/08/25 02:28:51;;;;;;;5.45;4.32;;;18.10;75.50;;;;;;4953031;28;20182;-61
2022/08/25 02:31:19;;;;;;;5.35;4.25;;;18.20;75.50;;;;;;4951336;28;20601;-62
2022/08/25 02:33:45;;;;;;;4.82;4.43;;;18.10;75.40;;;;;;4952762;28;20104;-60
2022/08/25 02:36:11;;;;;;;5.63;5.00;;;18.10;75.40;;;;;;4948175;28;20546;-60
2022/08/25 02:38:38;;;;;;;4.97;4.32;;;18.00;75.60;;;;;;4953199;28;20047;-61
2022/08/25 02:41:18;;;;;;;5.03;4.50;;;18.00;75.70;;;;;;4950528;28;20423;-60
2022/08/25 02:43:47;;;;;;;4.72;4.32;;;18.00;76.50;;;;;;4949979;28;20499;-61
2022/08/25 02:46:13;;;;;;;5.22;4.72;;;18.00;76.00;;;;;;4952673;28;20165;-59
2022/08/25 02:48:40;;;;;;;5.60;4.57;;;17.90;76.00;;;;;;4950639;28;20427;-60
2022/08/25 02:51:07;;;;;;;5.10;4.63;;;17.90;76.00;;;;;;4950737;28;20031;-61
2022/08/25 02:53:34;;;;;;;5.38;4.20;;;17.90;76.00;;;;;;4950538;28;20502;-61
2022/08/25 02:56:00;;;;;;;5.80;4.90;;;17.80;76.00;;;;;;4951663;28;20047;-61
2022/08/25 02:58:25;;;;;;;5.20;4.68;;;17.80;76.10;;;;;;4950131;28;20094;-63
2022/08/25 03:00:51;;;;;;;4.90;4.10;;;17.80;76.30;;;;;;4953377;28;20138;-61
2022/08/25 03:03:18;;;;;;;5.15;4.68;;;17.80;76.40;;;;;;4949923;28;20404;-62
2022/08/25 03:05:44;;;;;;;6.85;5.50;;;17.80;76.50;;;;;;4952030;28;20043;-61
2022/08/25 03:08:10;;;;;;;5.30;4.63;;;17.70;76.50;;;;;;4951240;28;20201;-60
2022/08/25 03:10:36;;;;;;;5.72;4.53;;;17.70;77.40;;;;;;4948572;28;20122;-60
2022/08/25 03:13:03;;;;;;;5.05;4.65;;;17.70;76.70;;;;;;4945185;28;20035;-61
2022/08/25 03:15:29;;;;;;;5.63;5.05;;;17.70;76.80;;;;;;4933707;28;20034;-61
2022/08/25 03:17:55;;;;;;;5.50;4.97;;;17.70;76.80;;;;;;4949270;28;20412;-61
2022/08/25 03:20:23;;;;;;;7.10;5.53;;;17.60;76.80;;;;;;4952961;28;20529;-61
2022/08/25 03:22:49;;;;;;;6.50;5.47;;;17.60;77.10;;;;;;4952863;28;20104;-61
2022/08/25 03:28:01;;;;;;;5.88;5.10;;;17.50;77.00;;;;;;4947464;28;20097;-60
2022/08/25 03:30:27;;;;;;;6.03;5.43;;;17.50;77.10;;;;;;4951604;28;20040;-60
2022/08/25 03:32:52;;;;;;;9.00;5.55;;;17.50;77.20;;;;;;4951215;28;20510;-60
2022/08/25 03:35:18;;;;;;;6.80;5.70;;;17.50;77.20;;;;;;4949441;28;20062;-61
2022/08/25 03:37:44;;;;;;;7.45;5.68;;;17.50;77.20;;;;;;4951340;28;20038;-61
2022/08/25 03:40:12;;;;;;;6.82;5.20;;;17.50;77.20;;;;;;4949669;28;20050;-62
2022/08/25 03:42:42;;;;;;;7.00;5.78;;;17.50;77.30;;;;;;4951534;28;20074;-60
2022/08/25 03:45:10;;;;;;;7.07;6.30;;;17.40;77.60;;;;;;4948590;28;20070;-59
2022/08/25 03:47:37;;;;;;;6.45;5.75;;;17.40;77.50;;;;;;4951741;28;20058;-61
2022/08/25 03:50:04;;;;;;;5.40;4.85;;;17.40;77.70;;;;;;4950622;28;20070;-60
2022/08/25 03:52:30;;;;;;;8.35;5.97;;;17.30;77.70;;;;;;4949548;28;20129;-62
2022/08/25 03:54:56;;;;;;;7.47;5.97;;;17.30;77.70;;;;;;4952126;28;20159;-61
2022/08/25 03:57:21;;;;;;;9.20;6.15;;;17.30;77.70;;;;;;4953003;28;20511;-62
2022/08/25 03:59:47;;;;;;;6.55;5.88;;;17.30;77.70;;;;;;4948560;28;20086;-61
2022/08/25 04:02:12;;;;;;;6.78;5.95;;;17.30;77.90;;;;;;4951492;28;20738;-61
2022/08/25 04:04:39;;;;;;;6.40;5.75;;;17.30;78.00;;;;;;4948734;28;20039;-62
2022/08/25 04:07:05;;;;;;;8.25;6.10;;;17.30;78.10;;;;;;4953420;28;20040;-61
2022/08/25 04:09:31;;;;;;;6.43;5.78;;;17.30;78.00;;;;;;4951441;28;20035;-61
2022/08/25 04:11:56;;;;;;;6.78;5.88;;;17.30;78.00;;;;;;4941776;28;20043;-60
2022/08/25 04:14:23;;;;;;;7.25;6.00;;;17.30;77.90;;;;;;4952866;28;20043;-60
2022/08/25 04:16:49;;;;;;;6.43;5.82;;;17.30;77.80;;;;;;4951560;28;20047;-60
2022/08/25 04:19:15;;;;;;;7.10;5.68;;;17.30;77.90;;;;;;4950754;28;20452;-62
2022/08/25 04:21:41;;;;;;;8.18;6.00;;;17.20;77.90;;;;;;4953410;28;20558;-61
2022/08/25 04:24:09;;;;;;;6.43;5.60;;;17.20;77.90;;;;;;4946502;28;20039;-60
2022/08/25 04:26:40;;;;;;;7.95;6.47;;;17.20;78.00;;;;;;4950321;28;20026;-60
2022/08/25 04:29:08;;;;;;;7.00;6.30;;;17.20;78.20;;;;;;4951050;28;20035;-60
2022/08/25 04:31:33;;;;;;;7.13;6.43;;;17.10;78.10;;;;;;4950536;28;20046;-61
2022/08/25 04:34:02;;;;;;;9.90;7.45;;;17.10;78.30;;;;;;4952114;28;20027;-61
2022/08/25 04:36:27;;;;;;;8.65;7.00;;;17.20;78.60;;;;;;4951224;28;20045;-61
2022/08/25 04:38:53;;;;;;;8.95;7.38;;;17.20;78.60;;;;;;4951273;28;20035;-62
2022/08/25 04:41:21;;;;;;;10.13;7.32;;;17.20;78.60;;;;;;4945719;28;20133;-61
2022/08/25 04:43:46;;;;;;;8.82;6.50;;;17.10;78.50;;;;;;4949202;28;20046;-60
2022/08/25 04:46:21;;;;;;;7.63;6.82;;;17.20;78.60;;;;;;4947651;28;20035;-60
2022/08/25 04:48:49;;;;;;;8.43;7.18;;;17.20;79.10;;;;;;4953200;28;20058;-61
2022/08/25 04:51:19;;;;;;;7.90;7.10;;;17.20;78.70;;;;;;4948943;28;20402;-61
2022/08/25 04:53:46;;;;;;;10.00;7.80;;;17.20;78.70;;;;;;4949240;28;20039;-59
2022/08/25 04:56:13;;;;;;;8.50;7.28;;;17.20;78.80;;;;;;4949959;28;20511;-61
2022/08/25 04:58:40;;;;;;;8.55;7.28;;;17.20;80.00;;;;;;4952412;28;20495;-60
2022/08/25 05:01:14;;;;;;;8.63;7.05;;;17.20;79.10;;;;;;4947561;28;20034;-60
2022/08/25 05:03:40;;;;;;;8.07;7.22;;;17.20;79.40;;;;;;4949752;28;20061;-60
2022/08/25 05:06:06;;;;;;;10.40;7.40;;;17.20;79.20;;;;;;4949598;28;20472;-61
2022/08/25 05:08:32;;;;;;;18.63;7.70;;;17.20;79.20;;;;;;4949838;28;20559;-59
2022/08/25 05:10:58;;;;;;;9.20;7.00;;;17.20;79.10;;;;;;4944091;28;20040;-61
2022/08/25 05:13:25;;;;;;;8.18;6.63;;;17.20;79.20;;;;;;4947637;28;22344;-61
2022/08/25 05:15:56;;;;;;;9.02;7.15;;;17.20;79.20;;;;;;4950533;28;21454;-60
2022/08/25 05:18:23;;;;;;;7.20;6.43;;;17.30;79.60;;;;;;4950928;28;20039;-61
2022/08/25 05:20:50;;;;;;;8.18;6.90;;;17.20;79.40;;;;;;4949579;28;20526;-60
2022/08/25 05:23:16;;;;;;;7.97;6.82;;;17.20;79.60;;;;;;4950648;28;20499;-60
2022/08/25 05:25:43;;;;;;;9.52;6.85;;;17.20;79.60;;;;;;4946390;28;20051;-61
2022/08/25 05:28:09;;;;;;;9.50;7.45;;;17.30;79.80;;;;;;4949717;28;20031;-61
2022/08/25 05:30:38;;;;;;;13.85;6.78;;;17.30;80.00;;;;;;4946276;28;20404;-61
2022/08/25 05:33:03;;;;;;;10.95;7.45;;;17.30;80.20;;;;;;4950144;28;20108;-59
2022/08/25 05:35:29;;;;;;;10.30;7.82;;;17.30;80.20;;;;;;4950951;28;20040;-60
2022/08/25 05:37:56;;;;;;;9.82;8.15;;;17.40;80.50;;;;;;4950268;28;20039;-60
2022/08/25 05:40:23;;;;;;;11.45;9.50;;;17.40;80.60;;;;;;4948512;28;20043;-61
2022/08/25 05:42:49;;;;;;;12.55;9.98;;;17.60;81.40;;;;;;4946768;28;20085;-60
2022/08/25 05:45:16;;;;;;;11.32;9.85;;;17.60;82.20;;;;;;4950830;28;20044;-61
2022/08/25 05:47:42;;;;;;;13.02;10.10;;;17.70;82.60;;;;;;4949381;28;20062;-60
2022/08/25 05:50:08;;;;;;;13.40;10.25;;;17.80;82.90;;;;;;4948405;28;20045;-60
2022/08/25 05:52:34;;;;;;;12.45;10.05;;;17.80;82.90;;;;;;4950081;28;20035;-61
2022/08/25 05:55:00;;;;;;;14.27;10.23;;;17.90;83.90;;;;;;4953787;28;20515;-60
2022/08/25 05:57:26;;;;;;;14.27;11.25;;;18.00;83.10;;;;;;4952307;28;20043;-61
2022/08/25 05:59:51;;;;;;;14.23;11.00;;;18.10;83.30;;;;;;4949853;28;20035;-61
2022/08/25 06:05:01;;;;;;;14.37;10.80;;;18.20;83.50;;;;;;4950284;28;20050;-60
2022/08/25 06:07:27;;;;;;;18.35;11.38;;;18.30;83.30;;;;;;4954734;28;20298;-61
2022/08/25 06:09:52;;;;;;;15.52;11.23;;;18.40;83.60;;;;;;4952243;28;20035;-60
2022/08/25 06:12:20;;;;;;;13.07;10.75;;;18.50;83.70;;;;;;4945656;28;20050;-59
2022/08/25 06:14:47;;;;;;;14.85;10.95;;;18.50;83.70;;;;;;4951692;28;20118;-60
2022/08/25 06:17:12;;;;;;;12.45;10.80;;;18.60;83.50;;;;;;4953119;28;20911;-60
2022/08/25 06:19:38;;;;;;;15.13;10.82;;;18.70;83.40;;;;;;4952569;28;20039;-60
2022/08/25 06:22:04;;;;;;;14.38;10.70;;;18.70;83.60;;;;;;4951656;28;20042;-61
2022/08/25 06:24:29;;;;;;;13.63;10.82;;;18.80;83.60;;;;;;4953040;28;20047;-61
2022/08/25 06:26:56;;;;;;;13.93;10.80;;;18.90;83.40;;;;;;4941712;28;20567;-60
2022/08/25 06:29:22;;;;;;;13.13;10.63;;;18.90;83.40;;;;;;4944250;28;20034;-61
2022/08/25 06:31:48;;;;;;;12.45;10.13;;;19.00;83.20;;;;;;4948555;28;20039;-59
2022/08/25 06:34:15;;;;;;;12.63;10.45;;;19.10;82.90;;;;;;4949003;28;20515;-61
2022/08/25 06:36:40;;;;;;;12.50;9.93;;;19.10;82.90;;;;;;4953274;28;20075;-60
2022/08/25 06:39:06;;;;;;;12.63;10.55;;;19.20;82.70;;;;;;4945988;28;20189;-60
2022/08/25 06:41:32;;;;;;;11.93;10.07;;;19.30;82.60;;;;;;4947892;28;20035;-61
2022/08/25 06:43:58;;;;;;;13.18;10.48;;;19.30;82.50;;;;;;4939196;28;20051;-62
2022/08/25 06:46:25;;;;;;;13.75;10.20;;;19.40;82.40;;;;;;4951081;28;20491;-61
2022/08/25 06:48:53;;;;;;;13.00;10.68;;;19.40;82.10;;;;;;4949706;28;20043;-62
2022/08/25 06:51:20;;;;;;;12.23;10.35;;;19.50;82.10;;;;;;4952989;28;20046;-60
2022/08/25 06:53:47;;;;;;;14.27;10.70;;;19.50;81.90;;;;;;4953494;28;20101;-60
2022/08/25 06:56:14;;;;;;;12.13;10.18;;;19.60;81.90;;;;;;4949617;28;20264;-60
2022/08/25 06:58:41;;;;;;;12.82;10.15;;;19.60;81.90;;;;;;4952811;28;20042;-61
2022/08/25 07:01:32;;;;;;;14.05;10.05;;;19.60;81.90;;;;;;4950383;28;20039;-61
2022/08/25 07:04:00;;;;;;;12.57;9.93;;;19.70;83.10;;;;;;4939695;28;20048;-59
2022/08/25 07:06:27;;;;;;;12.50;10.38;;;19.80;81.90;;;;;;4942844;28;20042;-61
2022/08/25 07:08:53;;;;;;;14.57;9.82;;;19.90;81.80;;;;;;4946037;28;20502;-60
2022/08/25 07:11:20;;;;;;;13.65;10.13;;;19.90;81.50;;;;;;4943400;28;20725;-61
2022/08/25 07:13:47;;;;;;;13.20;9.93;;;20.00;81.50;;;;;;4938153;28;20037;-62
2022/08/25 07:16:16;;;;;;;13.57;10.60;;;20.00;81.30;;;;;;4941572;28;20038;-60
2022/08/25 07:18:42;;;;;;;11.38;9.32;;;20.10;81.60;;;;;;4951620;28;20087;-61
2022/08/25 07:21:08;;;;;;;15.10;9.30;;;20.10;81.50;;;;;;4946295;28;20205;-60
2022/08/25 07:23:34;;;;;;;12.05;10.13;;;20.20;81.50;;;;;;4947456;28;20047;-61
2022/08/25 07:26:16;;;;;;;15.73;9.80;;;20.30;81.30;;;;;;4946302;28;20186;-61
2022/08/25 07:28:42;;;;;;;13.32;9.93;;;20.30;81.60;;;;;;4949530;28;20037;-60
2022/08/25 07:31:07;;;;;;;15.65;10.30;;;20.40;81.00;;;;;;4941714;28;20035;-59
2022/08/25 07:33:33;;;;;;;11.40;9.07;;;20.50;81.10;;;;;;4949124;28;20085;-62
2022/08/25 07:35:58;;;;;;;13.32;9.90;;;20.60;80.80;;;;;;4955182;28;20050;-62
2022/08/25 07:38:24;;;;;;;14.18;11.23;;;20.60;81.00;;;;;;4947847;28;20418;-62
2022/08/25 07:40:53;;;;;;;11.05;9.68;;;20.70;80.90;;;;;;4951279;28;20042;-60
2022/08/25 07:43:20;;;;;;;13.50;9.77;;;20.80;81.60;;;;;;4953880;28;20031;-60
2022/08/25 07:45:46;;;;;;;14.27;9.48;;;20.90;80.60;;;;;;4950649;28;20069;-61
2022/08/25 07:48:12;;;;;;;11.77;9.15;;;20.90;80.40;;;;;;4952637;28;20507;-61
2022/08/25 07:50:41;;;;;;;13.50;8.85;;;21.00;80.50;;;;;;4950056;28;20595;-61
2022/08/25 07:53:08;;;;;;;11.52;8.63;;;21.10;80.30;;;;;;4951935;28;20035;-63
2022/08/25 07:55:37;;;;;;;11.18;8.02;;;21.10;80.10;;;;;;4953211;28;20038;-62
2022/08/25 07:58:05;;;;;;;10.93;7.50;;;21.20;80.10;;;;;;4948546;28;20410;-60
2022/08/25 08:00:33;;;;;;;10.55;7.82;;;21.30;80.00;;;;;;4947420;28;20066;-61
2022/08/25 08:03:01;;;;;;;9.13;8.13;;;21.40;79.70;;;;;;4945010;28;20050;-61
2022/08/25 08:05:27;;;;;;;9.60;8.13;;;21.50;79.10;;;;;;4946131;28;20182;-62
2022/08/25 08:07:53;;;;;;;10.85;8.48;;;21.50;78.90;;;;;;4945056;28;20118;-60
2022/08/25 08:10:20;;;;;;;10.60;7.80;;;21.60;78.60;;;;;;4947188;28;20124;-60
2022/08/25 08:12:46;;;;;;;9.25;7.43;;;21.70;78.50;;;;;;4938217;28;20086;-62
2022/08/25 08:15:13;;;;;;;8.18;7.28;;;21.80;78.40;;;;;;4946611;28;20511;-63
2022/08/25 08:17:39;;;;;;;9.52;7.35;;;21.80;78.20;;;;;;4948768;28;20031;-62
2022/08/25 08:20:07;;;;;;;8.73;7.03;;;21.90;78.00;;;;;;4943126;28;20407;-60
2022/08/25 08:22:37;;;;;;;7.38;6.68;;;22.00;78.00;;;;;;4946012;28;20562;-62
2022/08/25 08:25:04;;;;;;;10.02;7.22;;;22.00;77.50;;;;;;4953232;28;20039;-62
2022/08/25 08:27:30;;;;;;;7.15;6.45;;;22.10;77.00;;;;;;4947429;28;20504;-62
2022/08/25 08:29:55;;;;;;;7.38;6.65;;;22.20;76.70;;;;;;4949708;28;20038;-62
2022/08/25 08:32:21;;;;;;;7.32;6.43;;;22.30;76.50;;;;;;4948148;28;20039;-63
2022/08/25 08:34:47;;;;;;;6.95;6.20;;;22.40;76.50;;;;;;4949550;28;20513;-62
2022/08/25 08:37:13;;;;;;;10.40;6.20;;;22.50;76.30;;;;;;4951550;28;20039;-61
2022/08/25 08:39:39;;;;;;;9.13;5.30;;;22.50;76.00;;;;;;4946079;28;20065;-62
2022/08/25 08:42:34;;;;;;;8.00;5.95;;;22.60;75.80;;;;;;4950751;28;20460;-60
2022/08/25 08:45:14;;;;;;;6.53;5.07;;;22.70;74.90;;;;;;4939526;28;20039;-61
2022/08/25 08:48:37;;;;;;;5.75;5.10;;;22.80;74.80;;;;;;4952557;28;20046;-63
2022/08/25 08:51:14;;;;;;;5.82;5.22;;;22.90;74.80;;;;;;4881077;29;20199;-62
2022/08/25 08:53:49;;;;;;;6.85;5.05;;;23.00;74.40;;;;;;4954808;28;20059;-62
2022/08/25 08:56:20;;;;;;;6.28;5.00;;;23.10;74.60;;;;;;4954459;28;20118;-62
2022/08/25 08:58:54;;;;;;;5.72;5.03;;;23.10;73.80;;;;;;4953678;28;20031;-61
2022/08/25 09:01:33;;;;;;;5.45;4.95;;;23.20;73.50;;;;;;4953274;28;20035;-62
2022/08/25 09:04:41;;;;;;;5.82;5.10;;;23.30;73.00;;;;;;4954818;28;20038;-62
2022/08/25 09:07:13;;;;;;;4.65;4.20;;;23.40;72.90;;;;;;4921412;28;20416;-61
2022/08/25 09:09:41;;;;;;;4.90;4.13;;;23.50;72.50;;;;;;4955712;28;20516;-62
2022/08/25 09:12:14;;;;;;;4.63;4.13;;;23.50;72.50;;;;;;4946005;28;20043;-62
2022/08/25 09:14:58;;;;;;;5.07;4.20;;;23.60;72.10;;;;;;4954637;28;20109;-61
2022/08/25 09:17:26;;;;;;;4.90;4.38;;;23.70;71.30;;;;;;4952584;28;20031;-63
2022/08/25 09:20:16;;;;;;;4.85;4.22;;;23.80;71.80;;;;;;4954140;28;20039;-61
2022/08/25 09:23:10;;;;;;;4.32;3.92;;;23.90;70.80;;;;;;4945629;28;20384;-61
2022/08/25 09:25:45;;;;;;;4.20;3.80;;;24.00;70.20;;;;;;4945947;28;20051;-62
2022/08/25 09:28:20;;;;;;;4.30;3.90;;;24.10;70.80;;;;;;4957798;28;20043;-62
2022/08/25 09:30:49;;;;;;;4.28;3.88;;;24.10;69.40;;;;;;4956318;28;20034;-61
2022/08/25 09:33:20;;;;;;;7.55;4.68;;;24.20;69.70;;;;;;4956347;28;20028;-62
2022/08/25 09:35:46;;;;;;;4.22;3.80;;;24.30;69.20;;;;;;4958176;28;20031;-62
2022/08/25 09:38:13;;;;;;;5.22;3.88;;;24.30;69.30;;;;;;4959264;28;20034;-62
2022/08/25 09:40:45;;;;;;;4.03;3.63;;;24.40;69.20;;;;;;4956443;28;20388;-62
2022/08/25 09:43:33;;;;;;;6.00;3.80;;;24.50;68.60;;;;;;4959148;28;20118;-62
2022/08/25 09:46:15;;;;;;;4.22;3.83;;;24.50;68.20;;;;;;4958953;28;20034;-63
2022/08/25 09:48:46;;;;;;;4.35;3.95;;;24.60;68.60;;;;;;4958103;28;20039;-62
2022/08/25 09:51:35;;;;;;;4.50;4.10;;;24.70;68.20;;;;;;4955646;28;20415;-63
2022/08/25 09:54:12;;;;;;;5.25;3.90;;;24.70;67.10;;;;;;4957343;28;20070;-62
2022/08/25 09:56:51;;;;;;;3.40;3.15;;;24.80;67.10;;;;;;4956747;28;20047;-62
2022/08/25 09:59:23;;;;;;;3.85;3.45;;;24.90;66.70;;;;;;4958369;28;20046;-60
2022/08/25 10:01:55;;;;;;;3.70;3.40;;;24.90;66.40;;;;;;4952646;28;20277;-62
2022/08/25 10:04:32;;;;;;;4.22;3.83;;;25.00;65.90;;;;;;4955934;28;20039;-62
2022/08/25 10:07:00;;;;;;;3.95;3.60;;;25.10;66.20;;;;;;4955145;28;20027;-62
2022/08/25 10:09:39;;;;;;;3.97;3.67;;;25.20;66.40;;;;;;4957863;28;20284;-61
2022/08/25 10:12:23;;;;;;;4.85;3.53;;;25.20;66.30;;;;;;4950211;28;20506;-62
2022/08/25 10:14:48;;;;;;;3.17;2.88;;;25.40;65.10;;;;;;4955450;28;20043;-61
2022/08/25 10:17:30;;;;;;;3.30;2.95;;;25.40;65.30;;;;;;4960093;28;20030;-61
2022/08/25 10:20:19;;;;;;;4.13;3.53;;;25.50;64.00;;;;;;4953974;28;20143;-60
2022/08/25 10:22:46;;;;;;;2.95;2.75;;;25.50;63.10;;;;;;4956063;28;20515;-62
2022/08/25 10:25:16;;;;;;;3.10;2.90;;;25.60;64.20;;;;;;4956363;28;20399;-63
2022/08/25 10:27:51;;;;;;;3.40;3.20;;;25.70;63.70;;;;;;4955308;28;20042;-61
2022/08/25 10:30:17;;;;;;;3.90;3.60;;;25.80;63.40;;;;;;4953684;28;20028;-60
2022/08/25 10:33:05;;;;;;;4.25;3.90;;;25.80;63.60;;;;;;4960164;28;20042;-62
2022/08/25 10:36:06;;;;;;;3.55;3.25;;;25.90;62.50;;;;;;4960651;28;20027;-63
2022/08/25 10:38:40;;;;;;;5.22;4.55;;;25.90;63.00;;;;;;4961075;28;20427;-63
2022/08/25 10:41:25;;;;;;;4.18;3.78;;;26.00;63.90;;;;;;4960061;28;20041;-62
2022/08/25 10:44:02;;;;;;;3.22;3.03;;;26.00;63.60;;;;;;4958714;28;20417;-62
2022/08/25 10:46:44;;;;;;;3.63;3.33;;;26.10;63.50;;;;;;4952834;28;20039;-61
2022/08/25 10:49:18;;;;;;;3.08;2.88;;;26.10;61.90;;;;;;4956595;28;20035;-62
2022/08/25 10:52:10;;;;;;;4.28;3.40;;;26.20;62.00;;;;;;4953537;28;20035;-63
2022/08/25 10:54:46;;;;;;;4.05;3.75;;;26.20;62.40;;;;;;4947766;28;20039;-62
2022/08/25 10:57:30;;;;;;;4.18;3.80;;;26.30;61.40;;;;;;4934411;28;20050;-62
2022/08/25 11:00:02;;;;;;;5.27;4.20;;;26.30;62.10;;;;;;4956767;28;20466;-63
2022/08/25 11:02:47;;;;;;;3.92;3.63;;;26.30;60.70;;;;;;4956289;28;20085;-62
2022/08/25 11:05:23;;;;;;;4.53;3.55;;;26.30;61.00;;;;;;4949963;28;20038;-61
2022/08/25 11:07:53;;;;;;;4.32;3.92;;;26.30;60.90;;;;;;4954020;28;20046;-61
2022/08/25 11:10:28;;;;;;;3.85;3.55;;;26.30;60.90;;;;;;4955804;28;20058;-62
2022/08/25 11:12:58;;;;;;;4.40;4.00;;;26.30;60.70;;;;;;4954453;28;20046;-63
2022/08/25 11:15:41;;;;;;;3.83;3.33;;;26.30;60.50;;;;;;4953424;28;20039;-63
2022/08/25 11:18:11;;;;;;;3.58;3.28;;;26.30;60.50;;;;;;4953380;28;20507;-62
2022/08/25 11:20:45;;;;;;;3.75;3.08;;;26.30;60.60;;;;;;4956424;28;20496;-63
2022/08/25 11:23:20;;;;;;;3.15;2.95;;;26.40;60.90;;;;;;4956680;28;20043;-63
2022/08/25 11:25:51;;;;;;;3.63;3.00;;;26.40;61.10;;;;;;4957974;28;20061;-63
2022/08/25 11:28:31;;;;;;;3.28;3.08;;;26.50;60.50;;;;;;4956610;28;20571;-64
2022/08/25 11:30:59;;;;;;;3.30;3.10;;;26.50;59.00;;;;;;4957041;28;20046;-63
2022/08/25 11:33:26;;;;;;;3.05;2.85;;;26.50;60.20;;;;;;4953797;28;20024;-62
2022/08/25 11:35:58;;;;;;;3.75;2.92;;;26.60;60.20;;;;;;4952437;28;20027;-63
2022/08/25 11:38:45;;;;;;;3.45;3.20;;;26.60;59.40;;;;;;4947810;28;20517;-63
2022/08/25 11:41:28;;;;;;;3.08;2.88;;;26.60;59.50;;;;;;4954003;28;20060;-61
2022/08/25 11:44:27;;;;;;;3.40;3.10;;;26.70;59.30;;;;;;4954421;28;20031;-62
2022/08/25 11:46:59;;;;;;;2.95;2.75;;;26.70;59.40;;;;;;4933173;28;20118;-63
2022/08/25 11:49:33;;;;;;;3.03;2.83;;;26.80;59.80;;;;;;4953200;28;20041;-62
2022/08/25 11:51:59;;;;;;;4.88;3.20;;;26.90;59.50;;;;;;4953372;28;20030;-63
2022/08/25 11:54:41;;;;;;;3.20;2.90;;;26.90;59.90;;;;;;4954396;28;20094;-63
2022/08/25 11:57:16;;;;;;;4.70;3.15;;;27.00;59.80;;;;;;4951932;28;20130;-62
2022/08/25 11:59:56;;;;;;;3.22;2.75;;;27.00;59.40;;;;;;4953402;28;20090;-63
2022/08/25 12:02:28;;;;;;;2.97;2.78;;;27.10;59.20;;;;;;4954275;28;20045;-63
2022/08/25 12:04:54;;;;;;;3.03;2.80;;;27.10;58.90;;;;;;4954024;28;20650;-62
2022/08/25 12:07:23;;;;;;;8.43;2.97;;;27.20;58.90;;;;;;4954329;28;20051;-63
2022/08/25 12:09:49;;;;;;;3.05;2.85;;;27.20;58.70;;;;;;4954218;28;20103;-63
2022/08/25 12:12:36;;;;;;;3.10;2.90;;;27.30;58.50;;;;;;4947636;28;20055;-65
2022/08/25 12:15:22;;;;;;;3.00;2.60;;;27.30;58.10;;;;;;4947812;28;20039;-63
2022/08/25 12:18:38;;;;;;;2.88;2.67;;;27.40;57.90;;;;;;4951794;28;20039;-63
2022/08/25 12:21:04;;;;;;;3.03;2.70;;;27.40;58.40;;;;;;4951665;28;20070;-62
2022/08/25 12:24:02;;;;;;;2.75;2.55;;;27.50;58.60;;;;;;4955763;28;20174;-60
2022/08/25 12:26:46;;;;;;;2.70;2.50;;;27.50;58.10;;;;;;4954918;28;20040;-62
2022/08/25 12:29:43;;;;;;;2.65;2.40;;;27.60;56.90;;;;;;4952647;28;20031;-63
2022/08/25 12:32:28;;;;;;;2.72;2.53;;;27.60;57.50;;;;;;4947196;28;20123;-62
2022/08/25 12:35:15;;;;;;;2.65;2.45;;;27.60;58.10;;;;;;4954452;28;20040;-62
2022/08/25 12:38:01;;;;;;;2.42;2.22;;;27.70;57.60;;;;;;4955696;28;20083;-61
2022/08/25 12:40:42;;;;;;;2.80;2.60;;;27.70;57.00;;;;;;4955171;28;20495;-61
2022/08/25 12:43:25;;;;;;;2.30;2.20;;;27.80;56.50;;;;;;4948132;28;20035;-64
2022/08/25 12:46:12;;;;;;;2.85;2.65;;;27.80;56.90;;;;;;4953815;28;20093;-63
2022/08/25 12:48:55;;;;;;;2.72;2.50;;;27.80;56.90;;;;;;4951564;28;20028;-63
2022/08/25 12:51:22;;;;;;;2.92;2.35;;;27.90;56.80;;;;;;4948123;28;20039;-63
2022/08/25 12:53:53;;;;;;;2.58;2.38;;;27.90;56.70;;;;;;4953536;28;20082;-61
2022/08/25 12:56:36;;;;;;;2.63;2.42;;;27.90;56.40;;;;;;4948861;28;20279;-64
2022/08/25 12:59:02;;;;;;;4.55;2.90;;;27.90;56.40;;;;;;4949231;28;20043;-62
2022/08/25 13:01:46;;;;;;;2.97;2.55;;;28.00;56.30;;;;;;4942205;28;20062;-63
2022/08/25 13:04:15;;;;;;;2.40;2.20;;;28.00;56.00;;;;;;4945278;28;20097;-62
2022/08/25 13:07:06;;;;;;;2.97;2.65;;;28.10;56.40;;;;;;4949763;28;20035;-63